createdAt,value
2023-05-04T00:00:26.536Z,88.13
2023-05-04T00:01:28.456Z,87.96
2023-05-04T00:02:30.389Z,88.00
2023-05-04T00:03:32.597Z,88.12
2023-05-04T00:04:34.686Z,88.25
2023-05-04T00:05:36.799Z,88.44
2023-05-04T00:06:38.602Z,88.49
2023-05-04T00:07:40.707Z,88.46
2023-05-04T00:08:42.640Z,88.68
2023-05-04T00:09:44.540Z,88.72
2023-05-04T00:10:46.427Z,88.78
2023-05-04T00:11:48.399Z,88.79
2023-05-04T00:12:50.365Z,88.66
2023-05-04T00:13:52.653Z,88.41
2023-05-04T00:14:54.592Z,88.35
2023-05-04T00:15:56.476Z,88.38
2023-05-04T00:16:58.269Z,88.30
2023-05-04T00:18:00.337Z,88.24
2023-05-04T00:19:02.366Z,88.20
2023-05-04T00:20:04.876Z,88.58
2023-05-04T00:21:07.404Z,88.28
2023-05-04T00:22:09.467Z,88.24
2023-05-04T00:23:11.402Z,88.48
2023-05-04T00:24:13.284Z,87.99
2023-05-04T00:25:15.109Z,88.06
2023-05-04T00:26:17.032Z,88.13
2023-05-04T00:27:18.931Z,88.25
2023-05-04T00:28:20.756Z,87.66
2023-05-04T00:29:22.636Z,87.83
2023-05-04T00:30:24.449Z,88.08
2023-05-04T00:31:26.506Z,87.60
2023-05-04T00:32:28.447Z,87.48
2023-05-04T00:33:30.303Z,87.97
2023-05-04T00:34:34.476Z,87.99
2023-05-04T00:35:36.330Z,88.34
2023-05-04T00:36:38.394Z,88.10
2023-05-04T00:37:40.306Z,88.31
2023-05-04T00:38:49.429Z,88.25
2023-05-04T00:39:51.393Z,88.38
2023-05-04T00:40:53.315Z,88.35
2023-05-04T00:41:55.289Z,87.89
2023-05-04T00:42:57.170Z,87.82
2023-05-04T00:44:00.079Z,87.31
2023-05-04T00:45:01.973Z,87.06
2023-05-04T00:46:03.861Z,87.48
2023-05-04T00:47:05.769Z,87.71
2023-05-04T00:48:08.348Z,87.76
2023-05-04T00:49:10.463Z,87.66
2023-05-04T00:50:13.191Z,88.02
2023-05-04T00:51:15.950Z,87.90
2023-05-04T00:52:17.953Z,88.49
2023-05-04T00:53:19.834Z,88.63
2023-05-04T00:54:21.774Z,88.86
2023-05-04T00:55:23.714Z,89.09
2023-05-04T00:56:26.089Z,89.06
2023-05-04T00:57:28.181Z,89.01
2023-05-04T00:58:31.668Z,88.78
2023-05-04T00:59:33.538Z,89.29
2023-05-04T01:00:36.128Z,89.21
2023-05-04T01:01:38.152Z,89.12
2023-05-04T01:02:42.613Z,89.26
2023-05-04T01:03:44.596Z,89.27
2023-05-04T01:04:46.836Z,88.90
2023-05-04T01:06:02.464Z,88.94
2023-05-04T01:07:11.615Z,88.61
2023-05-04T01:08:15.617Z,88.59
2023-05-04T01:09:39.818Z,88.33
2023-05-04T01:10:52.692Z,88.40
2023-05-04T01:12:03.871Z,88.65
2023-05-04T01:13:08.946Z,88.79
2023-05-04T01:14:14.437Z,88.17
2023-05-04T01:15:16.456Z,88.55
2023-05-04T01:16:18.601Z,88.90
2023-05-04T01:17:20.570Z,89.13
2023-05-04T01:18:23.603Z,89.77
2023-05-04T01:19:27.869Z,90.54
2023-05-04T01:20:29.827Z,90.74
2023-05-04T01:21:31.817Z,90.71
2023-05-04T01:22:33.786Z,90.89
2023-05-04T01:23:36.023Z,90.62
2023-05-04T01:24:38.597Z,90.77
2023-05-04T01:25:46.567Z,90.83
2023-05-04T01:26:49.219Z,90.70
2023-05-04T01:27:59.673Z,90.61
2023-05-04T01:29:05.078Z,90.38
2023-05-04T01:30:11.515Z,89.96
2023-05-04T01:31:14.621Z,90.14
2023-05-04T01:32:17.880Z,89.99
2023-05-04T01:33:20.246Z,90.13
2023-05-04T01:34:22.843Z,90.22
2023-05-04T01:35:25.619Z,90.40
2023-05-04T01:36:27.475Z,90.27
2023-05-04T01:37:29.368Z,90.47
2023-05-04T01:38:31.492Z,90.41
2023-05-04T01:39:34.550Z,90.25
2023-05-04T01:40:36.490Z,90.05
2023-05-04T01:41:38.575Z,90.07
2023-05-04T01:42:40.456Z,89.89
2023-05-04T01:43:43.304Z,89.88
2023-05-04T01:44:45.294Z,89.73
2023-05-04T01:45:47.420Z,89.70
2023-05-04T01:46:49.384Z,89.78
2023-05-04T01:47:51.506Z,89.47
2023-05-04T01:48:53.363Z,89.62
2023-05-04T01:49:55.279Z,89.59
2023-05-04T01:50:57.196Z,89.96
2023-05-04T01:51:59.210Z,89.96
2023-05-04T01:53:01.107Z,90.17
2023-05-04T01:54:03.040Z,90.06
2023-05-04T01:55:04.983Z,90.07
2023-05-04T01:56:08.122Z,90.34
2023-05-04T01:57:10.103Z,90.07
2023-05-04T01:58:12.025Z,90.04
2023-05-04T01:59:13.969Z,89.70
2023-05-04T02:00:16.653Z,89.65
2023-05-04T02:01:18.626Z,89.58
2023-05-04T02:02:20.658Z,89.98
2023-05-04T02:03:22.545Z,89.98
2023-05-04T02:04:24.601Z,90.14
2023-05-04T02:05:26.606Z,90.42
2023-05-04T02:06:28.483Z,90.26
2023-05-04T02:07:30.488Z,90.61
2023-05-04T02:08:32.263Z,90.42
2023-05-04T02:09:34.110Z,90.28
2023-05-04T02:10:36.091Z,90.33
2023-05-04T02:11:37.973Z,90.33
2023-05-04T02:12:39.971Z,90.43
2023-05-04T02:13:41.954Z,90.36
2023-05-04T02:14:43.731Z,90.33
2023-05-04T02:15:45.643Z,90.05
2023-05-04T02:16:47.512Z,89.85
2023-05-04T02:17:49.475Z,89.51
2023-05-04T02:18:51.569Z,89.54
2023-05-04T02:19:53.450Z,89.91
2023-05-04T02:20:55.452Z,89.93
2023-05-04T02:21:57.428Z,90.09
2023-05-04T02:22:59.342Z,89.83
2023-05-04T02:24:01.267Z,89.78
2023-05-04T02:25:03.691Z,89.83
2023-05-04T02:26:05.586Z,89.77
2023-05-04T02:27:07.522Z,89.76
2023-05-04T02:28:09.450Z,90.08
2023-05-04T02:29:11.391Z,90.12
2023-05-04T02:30:13.601Z,90.12
2023-05-04T02:31:15.560Z,90.03
2023-05-04T02:32:17.575Z,89.98
2023-05-04T02:33:19.585Z,90.04
2023-05-04T02:34:21.428Z,89.70
2023-05-04T02:35:23.448Z,89.46
2023-05-04T02:36:25.360Z,89.37
2023-05-04T02:37:27.225Z,89.39
2023-05-04T02:38:29.137Z,89.22
2023-05-04T02:39:31.023Z,89.27
2023-05-04T02:40:33.455Z,89.15
2023-05-04T02:41:35.510Z,88.77
2023-05-04T02:42:37.420Z,88.64
2023-05-04T02:43:39.219Z,88.77
2023-05-04T02:44:41.191Z,88.36
2023-05-04T02:45:43.102Z,88.40
2023-05-04T02:46:45.018Z,88.26
2023-05-04T02:47:46.958Z,88.39
2023-05-04T02:48:48.867Z,88.43
2023-05-04T02:49:51.215Z,88.80
2023-05-04T02:50:53.027Z,88.55
2023-05-04T02:51:55.283Z,88.80
2023-05-04T02:52:57.195Z,88.87
2023-05-04T02:53:58.997Z,89.22
2023-05-04T02:55:01.374Z,89.22
2023-05-04T02:56:03.249Z,89.27
2023-05-04T02:57:05.588Z,89.28
2023-05-04T02:58:08.182Z,88.89
2023-05-04T02:59:10.051Z,89.25
2023-05-04T03:00:12.107Z,89.17
2023-05-04T03:01:13.964Z,89.14
2023-05-04T03:02:16.036Z,88.90
2023-05-04T03:03:17.918Z,88.80
2023-05-04T03:04:19.869Z,88.81
2023-05-04T03:05:21.773Z,88.84
2023-05-04T03:06:23.679Z,88.65
2023-05-04T03:07:26.136Z,88.86
2023-05-04T03:08:29.892Z,88.72
2023-05-04T03:09:31.808Z,88.80
2023-05-04T03:10:33.794Z,88.73
2023-05-04T03:11:35.810Z,88.85
2023-05-04T03:12:37.701Z,89.00
2023-05-04T03:13:39.579Z,89.05
2023-05-04T03:14:41.405Z,89.22
2023-05-04T03:15:43.438Z,89.23
2023-05-04T03:16:45.359Z,89.26
2023-05-04T03:17:47.355Z,89.06
2023-05-04T03:18:49.638Z,89.00
2023-05-04T03:19:51.479Z,89.08
2023-05-04T03:20:53.288Z,88.84
2023-05-04T03:21:55.225Z,88.77
2023-05-04T03:22:57.190Z,88.29
2023-05-04T03:23:59.229Z,88.31
2023-05-04T03:25:01.153Z,87.99
2023-05-04T03:26:03.045Z,88.13
2023-05-04T03:27:04.889Z,88.26
2023-05-04T03:28:06.976Z,88.28
2023-05-04T03:29:08.889Z,88.70
2023-05-04T03:30:11.129Z,88.63
2023-05-04T03:31:12.991Z,88.33
2023-05-04T03:32:14.942Z,88.47
2023-05-04T03:33:16.890Z,88.54
2023-05-04T03:34:21.947Z,88.41
2023-05-04T03:35:24.920Z,88.48
2023-05-04T03:36:27.055Z,88.60
2023-05-04T03:37:28.933Z,88.63
2023-05-04T03:38:32.146Z,88.53
2023-05-04T03:39:34.185Z,88.43
2023-05-04T03:40:36.183Z,88.53
2023-05-04T03:41:38.042Z,88.68
2023-05-04T03:42:39.933Z,88.96
2023-05-04T03:43:42.462Z,89.45
2023-05-04T03:44:44.346Z,89.48
2023-05-04T03:45:46.416Z,89.62
2023-05-04T03:46:48.372Z,90.11
2023-05-04T03:47:50.263Z,90.56
2023-05-04T03:48:52.160Z,91.09
2023-05-04T03:49:54.039Z,91.27
2023-05-04T03:50:55.995Z,91.45
2023-05-04T03:51:57.858Z,91.40
2023-05-04T03:52:59.720Z,91.54
2023-05-04T03:54:01.729Z,91.32
2023-05-04T03:55:03.632Z,91.11
2023-05-04T03:56:05.649Z,91.08
2023-05-04T03:57:07.636Z,90.67
2023-05-04T03:58:09.483Z,90.56
2023-05-04T03:59:11.488Z,90.41
2023-05-04T04:00:13.710Z,89.80
2023-05-04T04:01:15.531Z,89.72
2023-05-04T04:02:17.527Z,89.64
2023-05-04T04:03:19.589Z,89.53
2023-05-04T04:04:21.661Z,89.57
2023-05-04T04:05:23.561Z,89.51
2023-05-04T04:06:25.522Z,88.95
2023-05-04T04:07:27.454Z,89.21
2023-05-04T04:08:29.487Z,89.44
2023-05-04T04:09:31.420Z,89.38
2023-05-04T04:10:33.248Z,89.36
2023-05-04T04:11:35.317Z,89.27
2023-05-04T04:12:37.186Z,89.58
2023-05-04T04:13:39.156Z,89.62
2023-05-04T04:14:41.375Z,89.99
2023-05-04T04:15:45.194Z,90.08
2023-05-04T04:16:47.199Z,90.10
2023-05-04T04:17:49.230Z,90.26
2023-05-04T04:18:51.110Z,90.40
2023-05-04T04:19:53.112Z,90.53
2023-05-04T04:20:55.009Z,90.62
2023-05-04T04:21:59.281Z,90.89
2023-05-04T04:23:01.438Z,90.83
2023-05-04T04:24:03.523Z,90.61
2023-05-04T04:25:05.512Z,90.54
2023-05-04T04:26:07.419Z,90.17
2023-05-04T04:27:09.402Z,89.97
2023-05-04T04:28:11.303Z,89.91
2023-05-04T04:29:13.264Z,90.06
2023-05-04T04:30:15.320Z,89.88
2023-05-04T04:31:20.500Z,90.12
2023-05-04T04:32:22.958Z,90.33
2023-05-04T04:33:24.891Z,91.03
2023-05-04T04:34:27.607Z,91.26
2023-05-04T04:35:29.648Z,91.39
2023-05-04T04:36:31.560Z,91.37
2023-05-04T04:37:33.436Z,91.62
2023-05-04T04:38:35.409Z,91.50
2023-05-04T04:39:37.429Z,91.67
2023-05-04T04:40:39.308Z,91.70
2023-05-04T04:41:41.226Z,92.02
2023-05-04T04:42:43.196Z,92.08
2023-05-04T04:43:45.088Z,92.47
2023-05-04T04:44:46.905Z,92.51
2023-05-04T04:45:49.468Z,92.54
2023-05-04T04:46:51.510Z,92.71
2023-05-04T04:47:53.488Z,92.97
2023-05-04T04:48:55.947Z,92.91
2023-05-04T04:49:57.827Z,93.19
2023-05-04T04:50:59.707Z,92.98
2023-05-04T04:52:02.315Z,92.99
2023-05-04T04:53:04.215Z,92.90
2023-05-04T04:54:06.251Z,92.89
2023-05-04T04:55:08.346Z,92.79
2023-05-04T04:56:10.797Z,92.65
2023-05-04T04:57:12.649Z,92.43
2023-05-04T04:58:14.554Z,92.11
2023-05-04T04:59:16.505Z,92.03
2023-05-04T05:00:19.405Z,92.00
2023-05-04T05:01:21.275Z,92.25
2023-05-04T05:02:23.371Z,92.20
2023-05-04T05:03:25.433Z,92.32
2023-05-04T05:04:27.594Z,92.30
2023-05-04T05:05:31.580Z,91.76
2023-05-04T05:06:34.115Z,91.55
2023-05-04T05:07:36.674Z,91.04
2023-05-04T05:08:38.544Z,91.07
2023-05-04T05:09:40.588Z,90.75
2023-05-04T05:10:43.981Z,90.29
2023-05-04T05:11:46.032Z,89.57
2023-05-04T05:12:48.294Z,89.59
2023-05-04T05:13:50.230Z,89.56
2023-05-04T05:14:52.208Z,89.57
2023-05-04T05:15:54.170Z,89.46
2023-05-04T05:16:56.126Z,89.31
2023-05-04T05:17:58.011Z,89.30
2023-05-04T05:18:59.880Z,88.59
2023-05-04T05:20:01.727Z,88.65
2023-05-04T05:21:03.727Z,88.80
2023-05-04T05:22:05.637Z,88.19
2023-05-04T05:23:07.863Z,88.14
2023-05-04T05:24:09.777Z,87.85
2023-05-04T05:25:12.593Z,87.49
2023-05-04T05:26:14.638Z,87.40
2023-05-04T05:27:17.194Z,87.77
2023-05-04T05:28:19.145Z,87.78
2023-05-04T05:29:21.969Z,87.22
2023-05-04T05:30:23.998Z,87.11
2023-05-04T05:31:26.169Z,87.39
2023-05-04T05:32:28.076Z,87.46
2023-05-04T05:33:30.208Z,87.55
2023-05-04T05:34:33.311Z,87.55
2023-05-04T05:35:35.188Z,87.75
2023-05-04T05:36:37.119Z,86.71
2023-05-04T05:37:39.017Z,86.13
2023-05-04T05:38:41.072Z,85.54
2023-05-04T05:39:43.001Z,86.15
2023-05-04T05:40:44.877Z,86.26
2023-05-04T05:41:47.068Z,85.68
2023-05-04T05:42:49.305Z,85.16
2023-05-04T05:43:51.211Z,84.39
2023-05-04T05:44:53.123Z,84.75
2023-05-04T05:45:55.089Z,84.72
2023-05-04T05:46:56.931Z,85.36
2023-05-04T05:47:58.745Z,85.23
2023-05-04T05:49:00.657Z,85.40
2023-05-04T05:50:03.349Z,85.42
2023-05-04T05:51:05.818Z,84.87
2023-05-04T05:52:07.829Z,85.27
2023-05-04T05:53:09.750Z,85.61
2023-05-04T05:54:11.679Z,85.39
2023-05-04T05:55:13.690Z,85.69
2023-05-04T05:56:15.610Z,84.86
2023-05-04T05:57:17.654Z,84.75
2023-05-04T05:58:19.513Z,85.45
2023-05-04T05:59:21.689Z,84.87
2023-05-04T06:00:24.529Z,85.47
2023-05-04T06:01:27.071Z,85.40
2023-05-04T06:02:29.115Z,85.52
2023-05-04T06:03:31.224Z,85.09
2023-05-04T06:04:33.254Z,85.29
2023-05-04T06:05:35.252Z,84.25
2023-05-04T06:06:37.077Z,84.51
2023-05-04T06:07:39.113Z,83.44
2023-05-04T06:08:41.757Z,83.40
2023-05-04T06:09:43.611Z,83.24
2023-05-04T06:10:46.621Z,82.94
2023-05-04T06:11:48.532Z,82.60
2023-05-04T06:12:50.376Z,81.86
2023-05-04T06:13:52.299Z,82.20
2023-05-04T06:14:54.365Z,82.35
2023-05-04T06:15:56.381Z,82.12
2023-05-04T06:16:58.233Z,82.16
2023-05-04T06:18:00.267Z,82.19
2023-05-04T06:19:02.152Z,81.68
2023-05-04T06:21:30.101Z,80.81
2023-05-04T06:22:32.208Z,80.55
2023-05-04T06:23:34.076Z,80.13
2023-05-04T06:24:35.958Z,81.08
2023-05-04T06:25:38.118Z,81.09
2023-05-04T06:26:40.117Z,80.43
2023-05-04T06:27:41.998Z,80.94
2023-05-04T06:28:43.984Z,80.60
2023-05-04T06:29:46.931Z,81.06
2023-05-04T06:30:49.132Z,80.34
2023-05-04T06:31:51.152Z,79.60
2023-05-04T06:32:53.057Z,78.96
2023-05-04T06:33:54.965Z,79.22
2023-05-04T06:34:56.975Z,79.07
2023-05-04T06:35:59.096Z,78.13
2023-05-04T06:37:01.140Z,78.02
2023-05-04T06:38:03.415Z,78.13
2023-05-04T06:39:05.396Z,78.48
2023-05-04T06:40:08.414Z,78.04
2023-05-04T06:41:11.082Z,78.31
2023-05-04T06:42:13.154Z,78.73
2023-05-04T06:43:14.951Z,78.82
2023-05-04T06:44:18.024Z,78.76
2023-05-04T06:45:19.878Z,78.33
2023-05-04T06:46:21.796Z,78.73
2023-05-04T06:47:23.761Z,78.34
2023-05-04T06:48:25.748Z,78.46
2023-05-04T06:49:31.230Z,77.39
2023-05-04T06:50:33.790Z,78.68
2023-05-04T06:51:37.976Z,78.79
2023-05-04T06:52:41.269Z,77.56
2023-05-04T06:53:43.170Z,76.91
2023-05-04T06:54:45.214Z,76.29
2023-05-04T06:55:47.050Z,76.47
2023-05-04T06:56:48.890Z,77.40
2023-05-04T06:57:51.395Z,76.29
2023-05-04T06:58:53.418Z,77.02
2023-05-04T06:59:55.352Z,76.94
2023-05-04T07:00:57.319Z,76.27
2023-05-04T07:01:59.248Z,76.75
2023-05-04T07:03:01.217Z,76.05
2023-05-04T07:04:03.285Z,76.77
2023-05-04T07:05:05.352Z,77.42
2023-05-04T07:06:07.495Z,77.24
2023-05-04T07:07:09.374Z,76.86
2023-05-04T07:08:11.937Z,76.32
2023-05-04T07:09:13.856Z,76.16
2023-05-04T07:10:15.969Z,76.03
2023-05-04T07:11:18.265Z,75.82
2023-05-04T07:12:20.205Z,76.04
2023-05-04T07:13:22.102Z,76.14
2023-05-04T07:14:23.982Z,75.59
2023-05-04T07:15:26.760Z,76.46
2023-05-04T07:16:28.812Z,76.19
2023-05-04T07:17:31.859Z,75.57
2023-05-04T07:18:33.823Z,75.52
2023-05-04T07:19:35.819Z,75.43
2023-05-04T07:20:37.897Z,75.56
2023-05-04T07:21:39.764Z,76.32
2023-05-04T07:22:41.843Z,76.14
2023-05-04T07:23:43.762Z,75.95
2023-05-04T07:24:46.151Z,76.03
2023-05-04T07:25:48.037Z,76.28
2023-05-04T07:26:49.910Z,76.27
2023-05-04T07:27:51.893Z,76.40
2023-05-04T07:28:53.797Z,76.13
2023-05-04T07:29:56.277Z,75.93
2023-05-04T07:30:58.192Z,75.61
2023-05-04T07:32:00.061Z,76.27
2023-05-04T07:33:02.022Z,75.95
2023-05-04T07:34:04.096Z,76.20
2023-05-04T07:35:06.289Z,75.96
2023-05-04T07:36:08.374Z,75.71
2023-05-04T07:37:10.408Z,75.60
2023-05-04T07:38:12.300Z,75.62
2023-05-04T07:39:14.430Z,75.58
2023-05-04T07:40:16.620Z,76.20
2023-05-04T07:41:18.610Z,76.50
2023-05-04T07:42:20.483Z,75.89
2023-05-04T07:43:22.479Z,75.42
2023-05-04T07:44:24.406Z,75.62
2023-05-04T07:45:26.194Z,75.62
2023-05-04T07:46:28.260Z,75.99
2023-05-04T07:47:30.204Z,75.61
2023-05-04T07:48:33.763Z,75.17
2023-05-04T07:49:35.733Z,75.16
2023-05-04T07:50:37.654Z,74.62
2023-05-04T07:51:39.545Z,74.20
2023-05-04T07:52:41.387Z,74.49
2023-05-04T07:53:44.116Z,73.66
2023-05-04T07:54:45.948Z,74.29
2023-05-04T07:55:48.587Z,74.40
2023-05-04T07:56:50.907Z,75.42
2023-05-04T07:57:52.995Z,75.54
2023-05-04T07:58:54.838Z,74.34
2023-05-04T07:59:56.669Z,74.86
2023-05-04T08:00:58.543Z,74.58
2023-05-04T08:02:00.794Z,74.19
2023-05-04T08:03:02.792Z,73.68
2023-05-04T08:04:04.654Z,74.17
2023-05-04T08:05:07.384Z,73.90
2023-05-04T08:06:09.360Z,74.76
2023-05-04T08:07:11.287Z,73.50
2023-05-04T08:08:13.154Z,73.44
2023-05-04T08:09:15.217Z,72.76
2023-05-04T08:10:17.158Z,73.27
2023-05-04T08:11:20.870Z,73.68
2023-05-04T08:12:24.422Z,73.62
2023-05-04T08:13:26.434Z,73.45
2023-05-04T08:14:28.306Z,73.58
2023-05-04T08:15:30.196Z,74.41
2023-05-04T08:16:32.641Z,73.89
2023-05-04T08:17:39.583Z,72.46
2023-05-04T08:18:41.569Z,73.76
2023-05-04T08:19:44.053Z,73.06
2023-05-04T08:20:46.047Z,72.42
2023-05-04T08:21:48.127Z,72.29
2023-05-04T08:22:50.286Z,72.11
2023-05-04T08:23:52.392Z,71.75
2023-05-04T08:24:54.379Z,72.37
2023-05-04T08:25:56.342Z,72.35
2023-05-04T08:27:07.071Z,71.74
2023-05-04T08:28:10.445Z,71.98
2023-05-04T08:29:12.389Z,72.51
2023-05-04T08:30:14.529Z,73.07
2023-05-04T08:31:18.722Z,72.24
2023-05-04T08:32:20.698Z,71.43
2023-05-04T08:33:22.580Z,70.83
2023-05-04T08:34:24.830Z,72.04
2023-05-04T08:35:28.171Z,73.51
2023-05-04T08:36:30.441Z,73.93
2023-05-04T08:37:32.634Z,71.91
2023-05-04T08:38:34.535Z,71.25
2023-05-04T08:39:36.486Z,71.40
2023-05-04T08:40:41.116Z,69.40
2023-05-04T08:41:43.743Z,71.47
2023-05-04T08:42:48.368Z,71.61
2023-05-04T08:43:50.634Z,72.29
2023-05-04T08:44:52.496Z,72.07
2023-05-04T08:45:54.468Z,71.00
2023-05-04T08:46:57.280Z,70.78
2023-05-04T08:47:59.258Z,71.17
2023-05-04T08:49:01.290Z,70.92
2023-05-04T08:50:03.247Z,67.62
2023-05-04T08:51:06.952Z,68.96
2023-05-04T08:52:09.124Z,70.00
2023-05-04T08:53:12.523Z,70.64
2023-05-04T08:54:15.294Z,70.29
2023-05-04T08:55:17.700Z,68.62
2023-05-04T08:56:20.304Z,69.26
2023-05-04T08:57:23.229Z,69.87
2023-05-04T08:58:25.711Z,69.63
2023-05-04T08:59:28.994Z,69.67
2023-05-04T09:00:31.474Z,69.83
2023-05-04T09:01:34.045Z,67.99
2023-05-04T09:02:37.696Z,67.60
2023-05-04T09:03:39.861Z,67.94
2023-05-04T09:04:41.808Z,67.05
2023-05-04T09:05:44.298Z,67.44
2023-05-04T09:06:47.718Z,66.85
2023-05-04T09:07:51.346Z,67.10
2023-05-04T09:08:53.183Z,68.53
2023-05-04T09:09:55.125Z,67.07
2023-05-04T09:10:57.164Z,69.34
2023-05-04T09:11:59.273Z,69.26
2023-05-04T09:13:01.203Z,67.67
2023-05-04T09:14:03.397Z,67.08
2023-05-04T09:15:18.074Z,66.17
2023-05-04T09:16:20.619Z,68.58
2023-05-04T09:17:29.749Z,67.71
2023-05-04T09:18:41.353Z,66.71
2023-05-04T09:19:44.480Z,65.18
2023-05-04T09:20:47.702Z,66.26
2023-05-04T09:21:51.562Z,66.09
2023-05-04T09:23:03.873Z,67.08
2023-05-04T09:24:06.582Z,63.89
2023-05-04T09:25:12.495Z,63.39
2023-05-04T09:26:14.687Z,63.50
2023-05-04T09:27:18.410Z,62.76
2023-05-04T09:28:22.700Z,62.27
2023-05-04T09:29:25.984Z,62.79
2023-05-04T09:30:28.290Z,62.36
2023-05-04T09:31:30.324Z,64.05
2023-05-04T09:32:36.317Z,65.10
2023-05-04T09:33:38.343Z,63.13
2023-05-04T09:34:49.236Z,62.33
2023-05-04T09:35:51.757Z,63.58
2023-05-04T09:37:02.058Z,63.68
2023-05-04T09:38:05.138Z,63.06
2023-05-04T09:39:13.613Z,62.20
2023-05-04T09:40:15.634Z,62.55
2023-05-04T09:41:17.554Z,63.24
2023-05-04T09:42:21.183Z,62.26
2023-05-04T09:43:24.014Z,63.32
2023-05-04T09:44:29.947Z,62.90
2023-05-04T09:45:40.965Z,65.14
2023-05-04T09:46:42.930Z,64.80
2023-05-04T09:47:45.172Z,64.11
2023-05-04T09:48:53.832Z,66.25
2023-05-04T09:49:55.744Z,63.88
2023-05-04T09:51:02.768Z,66.78
2023-05-04T09:52:06.162Z,64.40
2023-05-04T09:53:09.014Z,61.75
2023-05-04T09:54:11.451Z,59.79
2023-05-04T09:55:14.082Z,58.83
2023-05-04T09:56:33.398Z,60.16
2023-05-04T09:57:36.363Z,58.54
2023-05-04T09:58:38.609Z,61.46
2023-05-04T09:59:40.652Z,62.54
2023-05-04T10:00:42.798Z,63.30
2023-05-04T10:01:45.489Z,63.79
2023-05-04T10:02:48.534Z,62.25
2023-05-04T10:03:53.011Z,63.57
2023-05-04T10:04:57.717Z,58.47
2023-05-04T10:06:02.802Z,57.87
2023-05-04T10:07:05.388Z,59.50
2023-05-04T10:08:08.667Z,58.65
2023-05-04T10:09:11.880Z,61.11
2023-05-04T10:10:14.669Z,56.91
2023-05-04T10:11:19.075Z,59.43
2023-05-04T10:12:20.994Z,59.20
2023-05-04T10:13:23.489Z,60.20
2023-05-04T10:14:25.444Z,61.84
2023-05-04T10:15:27.327Z,60.02
2023-05-04T10:16:29.279Z,59.55
2023-05-04T10:17:31.278Z,60.88
2023-05-04T10:18:45.312Z,59.18
2023-05-04T10:19:53.295Z,57.16
2023-05-04T10:20:58.410Z,56.16
2023-05-04T10:22:18.860Z,53.92
2023-05-04T10:23:30.746Z,54.51
2023-05-04T10:24:33.152Z,58.83
2023-05-04T10:25:35.153Z,59.70
2023-05-04T10:26:55.668Z,58.61
2023-05-04T10:28:02.531Z,53.49
2023-05-04T10:29:07.381Z,56.49
2023-05-04T10:30:11.174Z,54.38
2023-05-04T10:31:13.096Z,56.36
2023-05-04T10:32:22.450Z,55.96
2023-05-04T10:33:37.862Z,56.49
2023-05-04T10:34:39.759Z,57.32
2023-05-04T10:35:54.559Z,56.86
2023-05-04T10:36:57.389Z,56.01
2023-05-04T10:37:59.554Z,57.80
2023-05-04T10:39:01.983Z,50.70
2023-05-04T10:40:07.794Z,49.87
2023-05-04T10:41:16.946Z,51.86
2023-05-04T10:42:18.870Z,50.98
2023-05-04T10:43:26.686Z,52.92
2023-05-04T10:44:29.508Z,51.25
2023-05-04T10:45:38.181Z,51.82
2023-05-04T10:46:40.163Z,51.91
2023-05-04T10:47:42.237Z,49.86
2023-05-04T10:48:44.205Z,50.56
2023-05-04T10:49:46.073Z,53.09
2023-05-04T10:50:51.246Z,51.29
2023-05-04T10:52:06.372Z,47.54
2023-05-04T10:53:08.532Z,47.08
2023-05-04T10:54:17.908Z,44.93
2023-05-04T10:55:20.503Z,49.99
2023-05-04T10:56:26.321Z,48.17
2023-05-04T10:57:31.682Z,47.80
2023-05-04T10:58:33.603Z,49.84
2023-05-04T10:59:36.738Z,48.35
2023-05-04T11:00:40.159Z,48.34
2023-05-04T11:01:43.811Z,46.79
2023-05-04T11:02:49.993Z,47.34
2023-05-04T11:03:52.956Z,45.73
2023-05-04T11:05:01.876Z,46.63
2023-05-04T11:06:04.410Z,45.75
2023-05-04T11:07:08.895Z,46.13
2023-05-04T11:08:17.852Z,44.77
2023-05-04T11:09:20.099Z,45.36
2023-05-04T11:10:23.623Z,49.97
2023-05-04T11:11:25.695Z,45.44
2023-05-04T11:12:27.680Z,45.73
2023-05-04T11:13:31.362Z,44.30
2023-05-04T11:14:37.975Z,48.22
2023-05-04T11:15:46.029Z,46.48
2023-05-04T11:16:47.906Z,44.10
2023-05-04T11:17:50.918Z,45.89
2023-05-04T11:18:53.960Z,45.11
2023-05-04T11:19:55.984Z,44.51
2023-05-04T11:20:58.352Z,45.89
2023-05-04T11:22:01.539Z,45.45
2023-05-04T11:23:04.126Z,44.60
2023-05-04T11:24:06.058Z,45.04
2023-05-04T11:25:08.899Z,44.02
2023-05-04T11:26:12.615Z,43.06
2023-05-04T11:27:21.909Z,44.07
2023-05-04T11:28:33.870Z,40.25
2023-05-04T11:29:35.803Z,42.87
2023-05-04T11:30:40.590Z,43.28
2023-05-04T11:31:42.554Z,41.62
2023-05-04T11:32:46.870Z,45.31
2023-05-04T11:33:48.776Z,39.54
2023-05-04T11:34:50.714Z,43.46
2023-05-04T11:35:58.993Z,40.56
2023-05-04T11:37:00.921Z,45.28
2023-05-04T11:38:02.908Z,41.90
2023-05-04T11:39:06.711Z,42.64
2023-05-04T11:40:16.754Z,43.01
2023-05-04T11:41:18.623Z,41.56
2023-05-04T11:42:20.471Z,40.11
2023-05-04T11:43:22.960Z,41.42
2023-05-04T11:44:25.517Z,41.62
2023-05-04T11:45:28.575Z,41.63
2023-05-04T11:46:32.644Z,40.57
2023-05-04T11:47:34.876Z,41.09
2023-05-04T11:48:37.207Z,38.92
2023-05-04T11:49:39.244Z,39.93
2023-05-04T11:50:41.278Z,41.29
2023-05-04T11:51:43.213Z,39.45
2023-05-04T11:52:45.733Z,40.56
2023-05-04T11:53:47.677Z,40.26
2023-05-04T11:54:57.461Z,37.49
2023-05-04T11:56:02.256Z,40.48
2023-05-04T11:57:04.370Z,39.45
2023-05-04T11:58:07.524Z,40.36
2023-05-04T11:59:10.996Z,36.55
2023-05-04T12:00:13.186Z,40.44
2023-05-04T12:01:16.145Z,38.18
2023-05-04T12:02:18.767Z,37.61
2023-05-04T12:03:53.216Z,39.80
2023-05-04T12:04:56.292Z,36.75
2023-05-04T12:05:58.995Z,37.57
2023-05-04T12:07:06.591Z,38.83
2023-05-04T12:08:12.595Z,38.92
2023-05-04T12:09:14.546Z,39.05
2023-05-04T12:10:24.868Z,37.96
2023-05-04T12:11:27.827Z,38.47
2023-05-04T12:12:35.235Z,36.38
2023-05-04T12:13:37.443Z,38.39
2023-05-04T12:14:49.398Z,36.54
2023-05-04T12:15:51.793Z,35.97
2023-05-04T12:16:54.107Z,37.50
2023-05-04T12:17:56.266Z,38.72
2023-05-04T12:19:07.278Z,38.52
2023-05-04T12:20:09.297Z,36.05
2023-05-04T12:21:15.268Z,38.01
2023-05-04T12:22:17.452Z,38.19
2023-05-04T12:23:19.397Z,40.33
2023-05-04T12:24:22.095Z,36.57
2023-05-04T12:25:24.563Z,36.62
2023-05-04T12:26:27.380Z,37.20
2023-05-04T12:27:29.229Z,38.50
2023-05-04T12:28:31.183Z,36.96
2023-05-04T12:29:33.032Z,38.01
2023-05-04T12:30:34.898Z,35.71
2023-05-04T12:31:36.887Z,35.62
2023-05-04T12:32:38.805Z,35.89
2023-05-04T12:33:40.747Z,33.49
2023-05-04T12:34:42.654Z,33.80
2023-05-04T12:35:44.570Z,36.57
2023-05-04T12:36:46.625Z,34.48
2023-05-04T12:37:48.578Z,35.77
2023-05-04T12:38:50.472Z,36.25
2023-05-04T12:39:52.315Z,35.46
2023-05-04T12:40:54.382Z,34.75
2023-05-04T12:41:56.248Z,36.59
2023-05-04T12:42:58.902Z,37.83
2023-05-04T12:44:00.934Z,39.79
2023-05-04T12:45:02.888Z,36.97
2023-05-04T12:46:04.872Z,34.78
2023-05-04T12:47:07.174Z,35.22
2023-05-04T12:48:09.079Z,32.66
2023-05-04T12:49:11.661Z,33.37
2023-05-04T12:50:13.603Z,35.27
2023-05-04T12:51:15.475Z,35.93
2023-05-04T12:52:17.315Z,35.09
2023-05-04T12:53:19.300Z,35.34
2023-05-04T12:54:21.303Z,38.93
2023-05-04T12:55:25.291Z,35.49
2023-05-04T12:56:27.519Z,34.82
2023-05-04T12:57:29.427Z,34.10
2023-05-04T12:58:31.841Z,34.74
2023-05-04T12:59:33.749Z,34.69
2023-05-04T13:00:36.812Z,33.32
2023-05-04T13:01:40.078Z,34.05
2023-05-04T13:02:42.033Z,33.33
2023-05-04T13:03:44.513Z,33.04
2023-05-04T13:04:46.649Z,34.87
2023-05-04T13:05:49.976Z,31.89
2023-05-04T13:06:52.288Z,32.32
2023-05-04T13:07:54.347Z,32.67
2023-05-04T13:08:56.160Z,32.17
2023-05-04T13:09:58.064Z,32.69
2023-05-04T13:10:59.936Z,32.07
2023-05-04T13:12:02.301Z,32.56
2023-05-04T13:13:06.899Z,32.57
2023-05-04T13:14:09.369Z,35.51
2023-05-04T13:15:11.397Z,31.72
2023-05-04T13:16:13.777Z,33.88
2023-05-04T13:17:16.098Z,35.04
2023-05-04T13:18:17.948Z,31.96
2023-05-04T13:19:19.957Z,33.57
2023-05-04T13:20:23.210Z,34.52
2023-05-04T13:21:25.357Z,34.42
2023-05-04T13:22:28.577Z,30.30
2023-05-04T13:23:31.077Z,30.93
2023-05-04T13:24:33.038Z,31.60
2023-05-04T13:25:35.005Z,27.83
2023-05-04T13:26:36.903Z,30.03
2023-05-04T13:27:38.829Z,30.52
2023-05-04T13:28:41.078Z,31.90
2023-05-04T13:29:42.951Z,32.29
2023-05-04T13:30:45.124Z,30.95
2023-05-04T13:31:47.118Z,30.93